sensor_id;sensor_type;location;lat;lon;timestamp;pressure;altitude;pressure_sealevel;temperature;humidity
2761;BME280;15420;48.636;9.798;2023-03-04T00:02:19;97127.06;;;2.55;90.48
2761;BME280;15420;48.636;9.798;2023-03-04T00:04:45;97120.91;;;2.52;90.95
2761;BME280;15420;48.636;9.798;2023-03-04T00:07:13;97130.22;;;2.51;91.04
2761;BME280;15420;48.636;9.798;2023-03-04T00:09:44;97119.06;;;2.49;91.07
2761;BME280;15420;48.636;9.798;2023-03-04T00:12:11;97130.81;;;2.47;90.98
2761;BME280;15420;48.636;9.798;2023-03-04T00:14:37;97130.66;;;2.44;90.85
2761;BME280;15420;48.636;9.798;2023-03-04T00:17:08;97132.22;;;2.42;91.58
2761;BME280;15420;48.636;9.798;2023-03-04T00:19:34;97125.31;;;2.40;91.85
2761;BME280;15420;48.636;9.798;2023-03-04T00:22:02;97130.28;;;2.38;92.17
2761;BME280;15420;48.636;9.798;2023-03-04T00:24:31;97120.91;;;2.37;91.84
2761;BME280;15420;48.636;9.798;2023-03-04T00:26:58;97122.59;;;2.37;92.15
2761;BME280;15420;48.636;9.798;2023-03-04T00:29:26;97120.81;;;2.36;92.01
2761;BME280;15420;48.636;9.798;2023-03-04T00:31:53;97120.03;;;2.37;92.09
2761;BME280;15420;48.636;9.798;2023-03-04T00:34:19;97124.16;;;2.35;92.08
2761;BME280;15420;48.636;9.798;2023-03-04T00:36:47;97118.03;;;2.31;92.27
2761;BME280;15420;48.636;9.798;2023-03-04T00:39:14;97114.50;;;2.29;92.23
2761;BME280;15420;48.636;9.798;2023-03-04T00:41:42;97120.47;;;2.29;92.51
2761;BME280;15420;48.636;9.798;2023-03-04T00:44:13;97123.63;;;2.25;92.85
2761;BME280;15420;48.636;9.798;2023-03-04T00:46:41;97126.06;;;2.24;92.61
2761;BME280;15420;48.636;9.798;2023-03-04T00:49:08;97124.22;;;2.21;92.68
2761;BME280;15420;48.636;9.798;2023-03-04T00:51:34;97124.06;;;2.18;92.92
2761;BME280;15420;48.636;9.798;2023-03-04T00:54:02;97131.69;;;2.18;92.79
2761;BME280;15420;48.636;9.798;2023-03-04T00:56:29;97122.91;;;2.13;92.87
2761;BME280;15420;48.636;9.798;2023-03-04T00:58:57;97117.75;;;2.12;92.60
2761;BME280;15420;48.636;9.798;2023-03-04T01:01:26;97115.09;;;2.10;93.12
2761;BME280;15420;48.636;9.798;2023-03-04T01:03:52;97110.81;;;2.09;93.44
2761;BME280;15420;48.636;9.798;2023-03-04T01:06:18;97113.31;;;2.08;92.98
2761;BME280;15420;48.636;9.798;2023-03-04T01:08:44;97114.16;;;2.08;92.75
2761;BME280;15420;48.636;9.798;2023-03-04T01:11:10;97112.34;;;2.06;93.39
2761;BME280;15420;48.636;9.798;2023-03-04T01:13:39;97111.28;;;2.02;93.55
2761;BME280;15420;48.636;9.798;2023-03-04T01:16:06;97106.09;;;2.01;93.69
2761;BME280;15420;48.636;9.798;2023-03-04T01:18:32;97108.56;;;1.99;93.59
2761;BME280;15420;48.636;9.798;2023-03-04T01:21:03;97097.53;;;1.99;94.11
2761;BME280;15420;48.636;9.798;2023-03-04T01:23:29;97102.50;;;1.97;93.97
2761;BME280;15420;48.636;9.798;2023-03-04T01:25:55;97110.81;;;1.94;94.07
2761;BME280;15420;48.636;9.798;2023-03-04T01:28:24;97099.69;;;1.92;93.94
2761;BME280;15420;48.636;9.798;2023-03-04T01:30:50;97098.72;;;1.90;94.23
2761;BME280;15420;48.636;9.798;2023-03-04T01:33:16;97097.75;;;1.88;93.75
2761;BME280;15420;48.636;9.798;2023-03-04T01:35:44;97104.50;;;1.88;93.77
2761;BME280;15420;48.636;9.798;2023-03-04T01:38:13;97091.63;;;1.85;93.90
2761;BME280;15420;48.636;9.798;2023-03-04T01:40:39;97094.94;;;1.84;94.44
2761;BME280;15420;48.636;9.798;2023-03-04T01:43:06;97093.09;;;1.81;94.05
2761;BME280;15420;48.636;9.798;2023-03-04T01:45:32;97092.03;;;1.78;94.16
2761;BME280;15420;48.636;9.798;2023-03-04T01:48:00;97097.03;;;1.76;93.84
2761;BME280;15420;48.636;9.798;2023-03-04T01:50:33;97097.81;;;1.75;94.09
2761;BME280;15420;48.636;9.798;2023-03-04T01:53:01;97095.88;;;1.71;94.78
2761;BME280;15420;48.636;9.798;2023-03-04T01:55:30;97089.06;;;1.70;94.67
2761;BME280;15420;48.636;9.798;2023-03-04T01:57:57;97083.97;;;1.70;94.20
2761;BME280;15420;48.636;9.798;2023-03-04T02:00:29;97085.53;;;1.68;94.85
2761;BME280;15420;48.636;9.798;2023-03-04T02:03:07;97077.06;;;1.68;94.11
2761;BME280;15420;48.636;9.798;2023-03-04T02:05:38;97082.03;;;1.66;94.92
2761;BME280;15420;48.636;9.798;2023-03-04T02:08:06;97073.53;;;1.66;94.23
2761;BME280;15420;48.636;9.798;2023-03-04T02:10:36;97082.03;;;1.66;94.32
2761;BME280;15420;48.636;9.798;2023-03-04T02:13:03;97071.69;;;1.63;94.37
2761;BME280;15420;48.636;9.798;2023-03-04T02:15:31;97080.09;;;1.62;95.27
2761;BME280;15420;48.636;9.798;2023-03-04T02:17:57;97076.59;;;1.60;94.50
2761;BME280;15420;48.636;9.798;2023-03-04T02:20:38;97076.59;;;1.60;94.78
2761;BME280;15420;48.636;9.798;2023-03-04T02:26:18;97074.56;;;1.54;94.59
2761;BME280;15420;48.636;9.798;2023-03-04T02:28:46;97074.47;;;1.53;94.44
2761;BME280;15420;48.636;9.798;2023-03-04T02:31:39;97065.88;;;1.51;94.66
2761;BME280;15420;48.636;9.798;2023-03-04T02:34:14;97069.22;;;1.50;94.91
2761;BME280;15420;48.636;9.798;2023-03-04T02:36:44;97065.88;;;1.51;95.72
2761;BME280;15420;48.636;9.798;2023-03-04T02:41:48;97070.88;;;1.49;95.57
2761;BME280;15420;48.636;9.798;2023-03-04T02:44:31;97074.28;;;1.50;95.83
2761;BME280;15420;48.636;9.798;2023-03-04T02:46:59;97073.31;;;1.48;95.18
2761;BME280;15420;48.636;9.798;2023-03-04T02:49:28;97078.41;;;1.48;95.71
2761;BME280;15420;48.636;9.798;2023-03-04T02:52:07;97076.75;;;1.48;95.74
2761;BME280;15420;48.636;9.798;2023-03-04T02:54:37;97076.66;;;1.47;95.08
2761;BME280;15420;48.636;9.798;2023-03-04T02:57:06;97077.44;;;1.46;94.90
2761;BME280;15420;48.636;9.798;2023-03-04T02:59:33;97074.00;;;1.45;94.87
2761;BME280;15420;48.636;9.798;2023-03-04T03:01:59;97079.00;;;1.44;95.53
2761;BME280;15420;48.636;9.798;2023-03-04T03:04:26;97081.34;;;1.41;95.16
2761;BME280;15420;48.636;9.798;2023-03-04T03:06:55;97079.50;;;1.38;94.80
2761;BME280;15420;48.636;9.798;2023-03-04T03:09:21;97079.41;;;1.37;94.77
2761;BME280;15420;48.636;9.798;2023-03-04T03:11:47;97084.41;;;1.35;95.34
2761;BME280;15420;48.636;9.798;2023-03-04T03:14:16;97083.53;;;1.35;94.83
2761;BME280;15420;48.636;9.798;2023-03-04T03:16:44;97082.53;;;1.33;95.42
2761;BME280;15420;48.636;9.798;2023-03-04T03:19:10;97083.34;;;1.31;95.05
2761;BME280;15420;48.636;9.798;2023-03-04T03:21:39;97076.50;;;1.30;94.93
2761;BME280;15420;48.636;9.798;2023-03-04T03:24:10;97077.28;;;1.29;94.70
2761;BME280;15420;48.636;9.798;2023-03-04T03:26:38;97078.06;;;1.28;94.70
2761;BME280;15420;48.636;9.798;2023-03-04T03:29:04;97078.75;;;1.26;95.20
2761;BME280;15420;48.636;9.798;2023-03-04T03:31:30;97080.31;;;1.24;94.39
2761;BME280;15420;48.636;9.798;2023-03-04T03:33:59;97079.34;;;1.22;94.80
2761;BME280;15420;48.636;9.798;2023-03-04T03:36:25;97069.13;;;1.20;95.06
2761;BME280;15420;48.636;9.798;2023-03-04T03:38:51;97074.09;;;1.19;94.57
2761;BME280;15420;48.636;9.798;2023-03-04T03:41:17;97074.00;;;1.17;94.34
2761;BME280;15420;48.636;9.798;2023-03-04T03:43:43;97069.72;;;1.16;94.99
2761;BME280;15420;48.636;9.798;2023-03-04T03:46:09;97078.00;;;1.14;94.32
2761;BME280;15420;48.636;9.798;2023-03-04T03:48:36;97076.16;;;1.11;94.92
2761;BME280;15420;48.636;9.798;2023-03-04T03:51:02;97083.78;;;1.11;94.22
2761;BME280;15420;48.636;9.798;2023-03-04T03:53:28;97081.13;;;1.10;95.22
2761;BME280;15420;48.636;9.798;2023-03-04T03:55:54;97075.88;;;1.07;94.80
2761;BME280;15420;48.636;9.798;2023-03-04T03:58:20;97080.78;;;1.04;94.71
2761;BME280;15420;48.636;9.798;2023-03-04T04:00:48;97073.09;;;1.02;94.31
2761;BME280;15420;48.636;9.798;2023-03-04T04:03:19;97077.09;;;0.98;94.96
2761;BME280;15420;48.636;9.798;2023-03-04T04:05:45;97071.84;;;0.95;94.32
2761;BME280;15420;48.636;9.798;2023-03-04T04:08:17;97069.97;;;0.93;94.63
2761;BME280;15420;48.636;9.798;2023-03-04T04:10:44;97067.25;;;0.90;94.39
2761;BME280;15420;48.636;9.798;2023-03-04T04:13:13;97063.66;;;0.86;94.58
2761;BME280;15420;48.636;9.798;2023-03-04T04:15:41;97063.56;;;0.85;94.34
2761;BME280;15420;48.636;9.798;2023-03-04T04:18:07;97065.91;;;0.82;94.63
2761;BME280;15420;48.636;9.798;2023-03-04T04:20:34;97061.63;;;0.81;95.02
2761;BME280;15420;48.636;9.798;2023-03-04T04:23:01;97073.31;;;0.79;94.24
2761;BME280;15420;48.636;9.798;2023-03-04T04:25:28;97077.41;;;0.77;94.25
2761;BME280;15420;48.636;9.798;2023-03-04T04:27:56;97069.63;;;0.74;95.05
2761;BME280;15420;48.636;9.798;2023-03-04T04:30:22;97073.81;;;0.73;94.40
2761;BME280;15420;48.636;9.798;2023-03-04T04:32:53;97078.78;;;0.72;95.05
2761;BME280;15420;48.636;9.798;2023-03-04T04:35:19;97085.41;;;0.70;94.76
2761;BME280;15420;48.636;9.798;2023-03-04T04:37:47;97072.75;;;0.70;94.27
2761;BME280;15420;48.636;9.798;2023-03-04T04:40:14;97080.25;;;0.68;94.23
2761;BME280;15420;48.636;9.798;2023-03-04T04:42:40;97074.31;;;0.68;95.07
2761;BME280;15420;48.636;9.798;2023-03-04T04:45:09;97079.19;;;0.64;94.78
2761;BME280;15420;48.636;9.798;2023-03-04T04:47:35;97086.50;;;0.60;94.25
2761;BME280;15420;48.636;9.798;2023-03-04T04:50:02;97090.78;;;0.61;94.20
2761;BME280;15420;48.636;9.798;2023-03-04T04:52:28;97083.84;;;0.58;94.34
2761;BME280;15420;48.636;9.798;2023-03-04T04:54:54;97083.66;;;0.55;95.08
2761;BME280;15420;48.636;9.798;2023-03-04T04:57:23;97089.59;;;0.56;95.20
2761;BME280;15420;48.636;9.798;2023-03-04T04:59:50;97089.50;;;0.54;95.02
2761;BME280;15420;48.636;9.798;2023-03-04T05:02:16;97088.63;;;0.54;94.50
2761;BME280;15420;48.636;9.798;2023-03-04T05:04:45;97086.78;;;0.51;94.26
2761;BME280;15420;48.636;9.798;2023-03-04T05:07:11;97083.28;;;0.49;94.80
2761;BME280;15420;48.636;9.798;2023-03-04T05:09:39;97088.16;;;0.46;95.10
2761;BME280;15420;48.636;9.798;2023-03-04T05:12:06;97083.75;;;0.44;94.80
2761;BME280;15420;48.636;9.798;2023-03-04T05:14:32;97082.88;;;0.43;94.84
2761;BME280;15420;48.636;9.798;2023-03-04T05:16:58;97075.97;;;0.41;94.94
2761;BME280;15420;48.636;9.798;2023-03-04T05:19:24;97072.44;;;0.39;94.98
2761;BME280;15420;48.636;9.798;2023-03-04T05:21:52;97077.41;;;0.37;94.71
2761;BME280;15420;48.636;9.798;2023-03-04T05:24:19;97080.63;;;0.35;94.78
2761;BME280;15420;48.636;9.798;2023-03-04T05:26:45;97077.13;;;0.32;94.23
2761;BME280;15420;48.636;9.798;2023-03-04T05:29:11;97078.69;;;0.30;94.87
2761;BME280;15420;48.636;9.798;2023-03-04T05:31:40;97082.88;;;0.30;94.70
2761;BME280;15420;48.636;9.798;2023-03-04T05:34:08;97087.94;;;0.30;94.86
2761;BME280;15420;48.636;9.798;2023-03-04T05:36:37;97087.16;;;0.31;94.51
2761;BME280;15420;48.636;9.798;2023-03-04T05:39:03;97088.72;;;0.29;95.23
2761;BME280;15420;48.636;9.798;2023-03-04T05:41:29;97084.31;;;0.26;95.11
2761;BME280;15420;48.636;9.798;2023-03-04T05:43:57;97083.34;;;0.24;95.12
2761;BME280;15420;48.636;9.798;2023-03-04T05:46:23;97083.34;;;0.24;95.13
2761;BME280;15420;48.636;9.798;2023-03-04T05:48:51;97083.44;;;0.26;95.50
2761;BME280;15420;48.636;9.798;2023-03-04T05:51:18;97085.00;;;0.24;95.53
2761;BME280;15420;48.636;9.798;2023-03-04T05:53:44;97088.41;;;0.24;95.88
2761;BME280;15420;48.636;9.798;2023-03-04T05:56:13;97088.41;;;0.24;96.46
2761;BME280;15420;48.636;9.798;2023-03-04T05:58:43;97086.75;;;0.25;96.51
2761;BME280;15420;48.636;9.798;2023-03-04T06:01:09;97092.81;;;0.27;96.07
2761;BME280;15420;48.636;9.798;2023-03-04T06:03:40;97097.00;;;0.26;95.63
2761;BME280;15420;48.636;9.798;2023-03-04T06:06:08;97102.84;;;0.25;95.90
2761;BME280;15420;48.636;9.798;2023-03-04T06:08:34;97100.31;;;0.25;96.52
2761;BME280;15420;48.636;9.798;2023-03-04T06:11:01;97101.84;;;0.23;95.50
2761;BME280;15420;48.636;9.798;2023-03-04T06:13:27;97102.72;;;0.24;95.57
2761;BME280;15420;48.636;9.798;2023-03-04T06:15:55;97105.28;;;0.24;95.85
2761;BME280;15420;48.636;9.798;2023-03-04T06:18:25;97109.47;;;0.23;96.06
2761;BME280;15420;48.636;9.798;2023-03-04T06:20:56;97110.13;;;0.21;96.66
2761;BME280;15420;48.636;9.798;2023-03-04T06:23:23;97120.47;;;0.24;96.49
2761;BME280;15420;48.636;9.798;2023-03-04T06:25:57;97122.31;;;0.26;97.20
2761;BME280;15420;48.636;9.798;2023-03-04T06:28:28;97122.31;;;0.26;97.35
2761;BME280;15420;48.636;9.798;2023-03-04T06:30:56;97129.34;;;0.30;96.79
2761;BME280;15420;48.636;9.798;2023-03-04T06:33:22;97133.75;;;0.33;97.13
2761;BME280;15420;48.636;9.798;2023-03-04T06:35:52;97126.25;;;0.35;97.94
2761;BME280;15420;48.636;9.798;2023-03-04T06:38:18;97133.16;;;0.37;97.30
2761;BME280;15420;48.636;9.798;2023-03-04T06:40:44;97131.69;;;0.41;98.20
2761;BME280;15420;48.636;9.798;2023-03-04T06:43:10;97136.19;;;0.45;97.40
2761;BME280;15420;48.636;9.798;2023-03-04T06:45:41;97137.28;;;0.48;98.15
2761;BME280;15420;48.636;9.798;2023-03-04T06:48:07;97137.38;;;0.50;97.59
2761;BME280;15420;48.636;9.798;2023-03-04T06:50:38;97139.31;;;0.54;98.50
2761;BME280;15420;48.636;9.798;2023-03-04T06:53:06;97143.81;;;0.58;98.06
2761;BME280;15420;48.636;9.798;2023-03-04T06:55:37;97141.56;;;0.62;98.67
2761;BME280;15420;48.636;9.798;2023-03-04T06:58:05;97135.81;;;0.65;98.00
2761;BME280;15420;48.636;9.798;2023-03-04T07:00:32;97144.41;;;0.67;98.85
2761;BME280;15420;48.636;9.798;2023-03-04T07:02:58;97145.78;;;0.75;98.20
2761;BME280;15420;48.636;9.798;2023-03-04T07:05:25;97145.78;;;0.75;99.05
2761;BME280;15420;48.636;9.798;2023-03-04T07:07:53;97145.19;;;0.79;99.37
2761;BME280;15420;48.636;9.798;2023-03-04T07:10:19;97147.03;;;0.82;98.92
2761;BME280;15420;48.636;9.798;2023-03-04T07:12:46;97151.44;;;0.84;99.78
2761;BME280;15420;48.636;9.798;2023-03-04T07:15:12;97146.66;;;0.89;99.20
2761;BME280;15420;48.636;9.798;2023-03-04T07:17:38;97158.75;;;0.93;99.33
2761;BME280;15420;48.636;9.798;2023-03-04T07:20:05;97151.63;;;1.01;99.61
2761;BME280;15420;48.636;9.798;2023-03-04T07:22:33;97156.56;;;1.12;99.38
2761;BME280;15420;48.636;9.798;2023-03-04T07:24:59;97157.72;;;1.17;99.38
2761;BME280;15420;48.636;9.798;2023-03-04T07:27:25;97155.28;;;1.19;99.86
2761;BME280;15420;48.636;9.798;2023-03-04T07:29:51;97148.16;;;1.26;100.00
2761;BME280;15420;48.636;9.798;2023-03-04T07:32:22;97158.31;;;1.26;99.62
2761;BME280;15420;48.636;9.798;2023-03-04T07:34:51;97155.25;;;1.32;99.67
2761;BME280;15420;48.636;9.798;2023-03-04T07:37:19;97157.41;;;1.39;100.00
2761;BME280;15420;48.636;9.798;2023-03-04T07:39:46;97162.56;;;1.41;100.00
2761;BME280;15420;48.636;9.798;2023-03-04T07:42:12;97169.69;;;1.46;100.00
2761;BME280;15420;48.636;9.798;2023-03-04T07:44:38;97176.53;;;1.47;100.00
2761;BME280;15420;48.636;9.798;2023-03-04T07:47:04;97172.22;;;1.46;100.00
2761;BME280;15420;48.636;9.798;2023-03-04T07:49:30;97175.84;;;1.50;100.00
2761;BME280;15420;48.636;9.798;2023-03-04T07:51:56;97170.44;;;1.58;100.00
2761;BME280;15420;48.636;9.798;2023-03-04T07:54:27;97177.97;;;1.57;100.00
2761;BME280;15420;48.636;9.798;2023-03-04T07:56:53;97177.56;;;1.64;100.00
2761;BME280;15420;48.636;9.798;2023-03-04T07:59:19;97177.47;;;1.62;100.00
2761;BME280;15420;48.636;9.798;2023-03-04T08:01:45;97179.81;;;1.59;100.00
2761;BME280;15420;48.636;9.798;2023-03-04T08:04:11;97171.50;;;1.62;100.00
2761;BME280;15420;48.636;9.798;2023-03-04T08:06:41;97176.19;;;1.69;100.00
2761;BME280;15420;48.636;9.798;2023-03-04T08:09:10;97185.66;;;1.72;100.00
2761;BME280;15420;48.636;9.798;2023-03-04T08:11:38;97179.09;;;1.75;100.00
2761;BME280;15420;48.636;9.798;2023-03-04T08:14:05;97190.13;;;1.76;100.00
2761;BME280;15420;48.636;9.798;2023-03-04T08:16:31;97183.75;;;1.82;100.00
2761;BME280;15420;48.636;9.798;2023-03-04T08:18:59;97194.00;;;1.84;100.00
2761;BME280;15420;48.636;9.798;2023-03-04T08:21:29;97181.22;;;1.82;100.00
2761;BME280;15420;48.636;9.798;2023-03-04T08:24:00;97184.72;;;1.84;100.00
2761;BME280;15420;48.636;9.798;2023-03-04T08:26:38;97195.16;;;1.89;100.00
2761;BME280;15420;48.636;9.798;2023-03-04T08:29:07;97191.66;;;1.87;100.00
2761;BME280;15420;48.636;9.798;2023-03-04T08:31:36;97193.59;;;1.91;100.00
2761;BME280;15420;48.636;9.798;2023-03-04T08:34:05;97199.56;;;1.91;100.00
2761;BME280;15420;48.636;9.798;2023-03-04T08:36:35;97204.63;;;1.91;100.00
2761;BME280;15420;48.636;9.798;2023-03-04T08:39:02;97205.78;;;1.96;100.00
2761;BME280;15420;48.636;9.798;2023-03-04T08:41:28;97205.00;;;1.98;100.00
2761;BME280;15420;48.636;9.798;2023-03-04T08:44:02;97210.69;;;1.93;100.00
2761;BME280;15420;48.636;9.798;2023-03-04T08:46:28;97209.91;;;1.94;100.00
2761;BME280;15420;48.636;9.798;2023-03-04T08:48:55;97207.63;;;1.99;100.00
2761;BME280;15420;48.636;9.798;2023-03-04T08:51:21;97209.31;;;1.99;100.00
2761;BME280;15420;48.636;9.798;2023-03-04T08:53:47;97202.38;;;1.96;99.98
2761;BME280;15420;48.636;9.798;2023-03-04T08:56:14;97198.16;;;1.96;100.00
2761;BME280;15420;48.636;9.798;2023-03-04T08:58:40;97209.91;;;1.94;99.98
2761;BME280;15420;48.636;9.798;2023-03-04T09:01:08;97208.44;;;1.98;100.00
2761;BME280;15420;48.636;9.798;2023-03-04T09:03:38;97208.34;;;1.96;100.00
2761;BME280;15420;48.636;9.798;2023-03-04T09:06:05;97205.09;;;1.99;100.00
2761;BME280;15420;48.636;9.798;2023-03-04T09:08:34;97220.34;;;1.99;100.00
2761;BME280;15420;48.636;9.798;2023-03-04T09:11:01;97221.41;;;2.03;100.00
2761;BME280;15420;48.636;9.798;2023-03-04T09:13:29;97221.59;;;2.06;100.00
2761;BME280;15420;48.636;9.798;2023-03-04T09:15:58;97216.41;;;2.04;100.00
2761;BME280;15420;48.636;9.798;2023-03-04T09:18:25;97212.31;;;2.06;99.79
2761;BME280;15420;48.636;9.798;2023-03-04T09:20:52;97215.09;;;2.11;99.62
2761;BME280;15420;48.636;9.798;2023-03-04T09:23:19;97217.38;;;2.06;99.87
2761;BME280;15420;48.636;9.798;2023-03-04T09:25:46;97215.63;;;2.05;100.00
2761;BME280;15420;48.636;9.798;2023-03-04T09:28:16;97218.97;;;2.04;100.00
2761;BME280;15420;48.636;9.798;2023-03-04T09:30:43;97218.88;;;2.03;100.00
2761;BME280;15420;48.636;9.798;2023-03-04T09:33:10;97225.94;;;2.08;100.00
2761;BME280;15420;48.636;9.798;2023-03-04T09:35:37;97221.72;;;2.37;99.42
2761;BME280;15420;48.636;9.798;2023-03-04T09:38:04;97222.56;;;2.22;99.66
2761;BME280;15420;48.636;9.798;2023-03-04T09:40:46;97222.38;;;2.19;100.00
2761;BME280;15420;48.636;9.798;2023-03-04T09:43:23;97222.28;;;2.18;100.00
2761;BME280;15420;48.636;9.798;2023-03-04T09:45:57;97231.59;;;2.17;99.86
2761;BME280;15420;48.636;9.798;2023-03-04T09:48:32;97226.59;;;2.19;100.00
2761;BME280;15420;48.636;9.798;2023-03-04T09:54:24;97216.25;;;2.16;100.00
2761;BME280;15420;48.636;9.798;2023-03-04T09:56:59;97225.28;;;2.25;100.00
2761;BME280;15420;48.636;9.798;2023-03-04T09:59:42;97220.50;;;2.30;99.62
2761;BME280;15420;48.636;9.798;2023-03-04T10:04:59;97219.88;;;2.34;99.75
2761;BME280;15420;48.636;9.798;2023-03-04T10:07:36;97217.94;;;2.30;99.89
2761;BME280;15420;48.636;9.798;2023-03-04T10:12:54;97219.44;;;2.26;100.00
2761;BME280;15420;48.636;9.798;2023-03-04T10:15:35;97221.28;;;2.29;100.00
2761;BME280;15420;48.636;9.798;2023-03-04T10:18:13;97214.00;;;2.35;100.00
2761;BME280;15420;48.636;9.798;2023-03-04T10:21:03;97219.28;;;2.38;100.00
2761;BME280;15420;48.636;9.798;2023-03-04T10:23:33;97215.44;;;2.45;99.96
2761;BME280;15420;48.636;9.798;2023-03-04T10:26:15;97220.41;;;2.43;99.68
2761;BME280;15420;48.636;9.798;2023-03-04T10:28:42;97218.59;;;2.41;100.00
2761;BME280;15420;48.636;9.798;2023-03-04T10:31:15;97219.47;;;2.41;100.00
2761;BME280;15420;48.636;9.798;2023-03-04T10:33:50;97221.38;;;2.45;100.00
2761;BME280;15420;48.636;9.798;2023-03-04T10:41:31;97215.59;;;2.48;100.00
2761;BME280;15420;48.636;9.798;2023-03-04T10:46:48;97220.97;;;2.52;99.71
2761;BME280;15420;48.636;9.798;2023-03-04T10:49:18;97220.09;;;2.52;99.78
2761;BME280;15420;48.636;9.798;2023-03-04T10:57:32;97214.38;;;2.56;99.63
2761;BME280;15420;48.636;9.798;2023-03-04T11:00:01;97205.28;;;2.59;99.70
2761;BME280;15420;48.636;9.798;2023-03-04T11:02:35;97213.16;;;2.64;99.18
2761;BME280;15420;48.636;9.798;2023-03-04T11:07:40;97215.53;;;2.61;99.03
2761;BME280;15420;48.636;9.798;2023-03-04T11:10:49;97205.00;;;2.55;99.47
2761;BME280;15420;48.636;9.798;2023-03-04T11:13:01;97200.00;;;2.56;99.34
2761;BME280;15420;48.636;9.798;2023-03-04T11:15:47;97198.25;;;2.55;99.19
2761;BME280;15420;48.636;9.798;2023-03-04T11:18:15;97200.88;;;2.57;99.32
2761;BME280;15420;48.636;9.798;2023-03-04T11:20:47;97192.66;;;2.61;98.89
2761;BME280;15420;48.636;9.798;2023-03-04T11:23:40;97190.91;;;2.60;98.74
2761;BME280;15420;48.636;9.798;2023-03-04T11:26:18;97194.50;;;2.63;98.65
2761;BME280;15420;48.636;9.798;2023-03-04T11:31:31;97197.13;;;2.65;98.35
2761;BME280;15420;48.636;9.798;2023-03-04T11:39:40;97191.78;;;2.75;97.48
2761;BME280;15420;48.636;9.798;2023-03-04T11:44:37;97183.25;;;2.75;97.60
2761;BME280;15420;48.636;9.798;2023-03-04T11:47:32;97189.84;;;2.71;97.56
2761;BME280;15420;48.636;9.798;2023-03-04T12:06:26;97166.50;;;2.93;96.67
2761;BME280;15420;48.636;9.798;2023-03-04T12:09:02;97150.28;;;2.91;96.46
2761;BME280;15420;48.636;9.798;2023-03-04T12:14:41;97138.59;;;2.94;96.41
2761;BME280;15420;48.636;9.798;2023-03-04T12:25:31;97125.84;;;3.09;94.91
2761;BME280;15420;48.636;9.798;2023-03-04T12:39:19;97107.56;;;3.33;93.70
2761;BME280;15420;48.636;9.798;2023-03-04T12:44:24;97097.63;;;3.37;92.48
2761;BME280;15420;48.636;9.798;2023-03-04T12:55:13;97092.47;;;3.52;91.42
2761;BME280;15420;48.636;9.798;2023-03-04T12:57:45;97089.22;;;3.54;90.65
2761;BME280;15420;48.636;9.798;2023-03-04T13:03:22;97080.78;;;3.55;90.42
2761;BME280;15420;48.636;9.798;2023-03-04T13:05:54;97090.50;;;3.63;90.25
2761;BME280;15420;48.636;9.798;2023-03-04T13:16:46;97082.22;;;3.67;88.72
2761;BME280;15420;48.636;9.798;2023-03-04T13:19:50;97079.34;;;3.77;88.62
2761;BME280;15420;48.636;9.798;2023-03-04T13:28:06;97070.91;;;3.78;87.29
2761;BME280;15420;48.636;9.798;2023-03-04T13:51:47;97057.81;;;4.04;82.74
2761;BME280;15420;48.636;9.798;2023-03-04T13:54:20;97062.91;;;4.04;82.49
2761;BME280;15420;48.636;9.798;2023-03-04T14:04:34;97060.16;;;4.17;81.21
2761;BME280;15420;48.636;9.798;2023-03-04T14:07:18;97068.03;;;4.22;81.41
2761;BME280;15420;48.636;9.798;2023-03-04T14:12:55;97061.91;;;4.18;80.74
2761;BME280;15420;48.636;9.798;2023-03-04T14:15:26;97059.50;;;4.21;81.24
2761;BME280;15420;48.636;9.798;2023-03-04T14:17:55;97062.03;;;4.21;80.91
2761;BME280;15420;48.636;9.798;2023-03-04T14:20:37;97059.66;;;4.24;80.25
2761;BME280;15420;48.636;9.798;2023-03-04T14:23:26;97057.81;;;4.22;80.21
2761;BME280;15420;48.636;9.798;2023-03-04T14:26:16;97050.97;;;4.21;80.87
2761;BME280;15420;48.636;9.798;2023-03-04T14:28:48;97048.56;;;4.24;80.48
2761;BME280;15420;48.636;9.798;2023-03-04T14:31:20;97048.66;;;4.25;80.80
2761;BME280;15420;48.636;9.798;2023-03-04T14:33:49;97044.56;;;4.29;80.30
2761;BME280;15420;48.636;9.798;2023-03-04T14:36:20;97048.88;;;4.30;80.41
2761;BME280;15420;48.636;9.798;2023-03-04T14:38:52;97038.44;;;4.25;80.00
2761;BME280;15420;48.636;9.798;2023-03-04T14:46:42;97038.81;;;4.33;79.77
2761;BME280;15420;48.636;9.798;2023-03-04T14:49:12;97039.31;;;4.26;79.50
2761;BME280;15420;48.636;9.798;2023-03-04T14:51:49;97029.41;;;4.32;78.64
2761;BME280;15420;48.636;9.798;2023-03-04T14:54:58;97028.16;;;4.24;78.66
2761;BME280;15420;48.636;9.798;2023-03-04T14:57:34;97031.19;;;4.15;79.47
2761;BME280;15420;48.636;9.798;2023-03-04T15:05:46;97019.16;;;4.13;78.94
2761;BME280;15420;48.636;9.798;2023-03-04T15:08:19;97024.34;;;4.14;79.16
2761;BME280;15420;48.636;9.798;2023-03-04T15:10:55;97019.56;;;4.22;79.89
2761;BME280;15420;48.636;9.798;2023-03-04T15:13:44;97023.00;;;4.22;78.99
2761;BME280;15420;48.636;9.798;2023-03-04T15:16:13;97020.53;;;4.24;79.29
2761;BME280;15420;48.636;9.798;2023-03-04T15:18:57;97031.66;;;4.26;79.19
2761;BME280;15420;48.636;9.798;2023-03-04T15:21:40;97025.63;;;4.24;80.00
2761;BME280;15420;48.636;9.798;2023-03-04T15:24:09;97025.84;;;4.28;79.58
2761;BME280;15420;48.636;9.798;2023-03-04T15:26:43;97029.03;;;4.24;79.72
2761;BME280;15420;48.636;9.798;2023-03-04T15:29:16;97017.31;;;4.28;79.64
2761;BME280;15420;48.636;9.798;2023-03-04T15:31:45;97019.72;;;4.25;79.09
2761;BME280;15420;48.636;9.798;2023-03-04T15:34:17;97025.63;;;4.24;79.47
2761;BME280;15420;48.636;9.798;2023-03-04T15:36:45;97022.13;;;4.22;79.49
2761;BME280;15420;48.636;9.798;2023-03-04T15:39:16;97025.56;;;4.22;79.40
2761;BME280;15420;48.636;9.798;2023-03-04T15:41:46;97022.94;;;4.21;78.89
2761;BME280;15420;48.636;9.798;2023-03-04T15:44:13;97016.88;;;4.19;79.82
2761;BME280;15420;48.636;9.798;2023-03-04T15:46:39;97021.97;;;4.19;79.06
2761;BME280;15420;48.636;9.798;2023-03-04T15:49:05;97018.28;;;4.12;79.19
2761;BME280;15420;48.636;9.798;2023-03-04T15:51:31;97026.56;;;4.08;79.46
2761;BME280;15420;48.636;9.798;2023-03-04T15:53:59;97024.09;;;4.10;79.81
2761;BME280;15420;48.636;9.798;2023-03-04T15:56:34;97017.19;;;4.07;79.26
2761;BME280;15420;48.636;9.798;2023-03-04T15:59:08;97022.84;;;4.02;80.07
2761;BME280;15420;48.636;9.798;2023-03-04T16:01:38;97015.13;;;4.00;79.15
2761;BME280;15420;48.636;9.798;2023-03-04T16:04:10;97023.06;;;4.06;79.11
2761;BME280;15420;48.636;9.798;2023-03-04T16:06:38;97021.19;;;4.02;79.08